Portada
METAR-TAF:

METAR-TAF

Aeropuertos :

Aeropuerto Internacional de Nadi

Nadi, Fiyi

latitud: 17-45S, longitud: 177-27E, altitud: 13 m

Observación

El informe se hizo hace 55 minutos, a las 23:00 UTC
Viento 3 kt del sur-suroeste
Temperatura 29°C
Humedad 58%
Presión 1014 hPa
Visibilidad 10 km o más
Escasas nubes a una altura de 3000 ft

METAR: NFFN 192300Z 21003KT 9999 FEW030 29/20 Q1014 NOSIG

Hora: 11:55 (23:55 UTC)

Pronóstico

El informe se hizo hace 47 minutos, a las 23:08 UTC
Pronóstico válido del 20 a las 00 UTC al 20 a las 24 UTC
Viento 10 kt del oeste-noroeste
Visibilidad 10 km o más
Escasas nubes a una altura de 3000 ft
Evolucionando progresivamente
del 20 a las 04 UTC al 20 a las 06 UTC
Viento 6 kt del este-sureste
Evolucionando progresivamente
del 20 a las 22 UTC al 20 a las 24 UTC
Viento 10 kt del oeste-noroeste

TAF: NFFN 192308Z 2000/2024 29010KT 9999 FEW030 BECMG 2004/2006 12006KT BECMG 2022/2024 29010KT

Observaciones y pronósticos meteorológicos de más de 4000 aeropuertos (mensajes METAR y TAF).

Los puntos amarillos y rojos representan las estaciones disponibles.

Ponga el ratón en el punto deseado para ver el nombre de la estación.

Haga clic para ver las observaciones y los pronósticos meteorológicos.

Para cambiar el mapa : haga clic en los botones verdes con una cruz de color negro para hacer un zoom, en el botón verde con un guión para alejar o en las flechas verdes para mapas adyacentes.


METAR-TAF: